Time;durP1;ratioP1;P1;durP2;ratioP2;P2;SDS_P1;SDS_P2;PMS_P1;PMS_P2;Temp;Humidity;BMP_temperature;BMP_pressure;BME280_temperature;BME280_humidity;BME280_pressure;Samples;Min_cycle;Max_cycle;Signal;HPM_P1;HPM_P2
2022/10/21 00:00:59;;;;;;;981.13;463.00;;;12.60;99.90;;;;;;5132482;27;20661;-52
2022/10/21 00:03:27;;;;;;;586.80;275.40;;;12.60;99.90;;;;;;5131975;27;20246;-52
2022/10/21 00:05:56;;;;;;;806.63;445.90;;;12.60;99.90;;;;;;5132238;27;20313;-51
2022/10/21 00:08:25;;;;;;;544.57;292.07;;;12.60;99.90;;;;;;5131906;27;20229;-52
2022/10/21 00:10:55;;;;;;;963.20;447.47;;;12.60;99.90;;;;;;5132368;27;20232;-51
2022/10/21 00:13:25;;;;;;;664.13;309.47;;;12.60;99.90;;;;;;5131323;27;20207;-52
2022/10/21 00:16:01;;;;;;;465.90;219.33;;;12.60;99.90;;;;;;5118193;27;20306;-50
2022/10/21 00:18:29;;;;;;;748.37;417.63;;;12.60;99.90;;;;;;5131859;27;20659;-52
2022/10/21 00:20:57;;;;;;;678.57;326.13;;;12.60;99.90;;;;;;5131435;27;20294;-51
2022/10/21 00:23:27;;;;;;;803.60;350.93;;;12.70;99.90;;;;;;5131878;27;20213;-52
2022/10/21 00:25:59;;;;;;;862.87;413.57;;;12.70;99.90;;;;;;5131864;27;20648;-52
2022/10/21 00:28:27;;;;;;;911.67;409.37;;;12.60;99.90;;;;;;5131963;27;20294;-52
2022/10/21 00:30:56;;;;;;;801.53;402.47;;;12.70;99.90;;;;;;5131582;27;20229;-51
2022/10/21 00:33:26;;;;;;;482.30;229.73;;;12.60;99.90;;;;;;5131294;27;20210;-52
2022/10/21 00:35:56;;;;;;;554.90;279.83;;;12.60;99.90;;;;;;5132014;27;20230;-52
2022/10/21 00:38:25;;;;;;;494.70;240.03;;;12.60;99.90;;;;;;5132446;27;20213;-51
2022/10/21 00:40:55;;;;;;;417.43;176.63;;;12.60;99.90;;;;;;5130107;27;20290;-52
2022/10/21 00:43:23;;;;;;;407.43;159.07;;;12.60;99.90;;;;;;5130878;27;20298;-51
2022/10/21 00:45:55;;;;;;;885.83;471.40;;;12.70;99.90;;;;;;5131192;27;20281;-52
2022/10/21 00:48:35;;;;;;;585.63;329.23;;;12.70;99.90;;;;;;5131758;27;20203;-52
2022/10/21 00:51:06;;;;;;;517.13;258.37;;;12.70;99.90;;;;;;5117391;27;20313;-51
2022/10/21 00:53:36;;;;;;;452.23;278.70;;;12.70;99.90;;;;;;5131037;27;20293;-51
2022/10/21 00:56:09;;;;;;;656.03;231.83;;;12.80;99.90;;;;;;5131105;27;20590;-51
2022/10/21 00:58:45;;;;;;;781.07;312.83;;;12.80;99.90;;;;;;5131401;27;20230;-52
2022/10/21 01:01:13;;;;;;;365.47;183.33;;;12.80;99.90;;;;;;5131293;27;20286;-51
2022/10/21 01:03:47;;;;;;;781.83;364.27;;;12.90;99.90;;;;;;5131158;27;20207;-51
2022/10/21 01:06:16;;;;;;;738.23;275.20;;;12.90;99.90;;;;;;5131238;27;20310;-51
2022/10/21 01:08:44;;;;;;;792.60;330.97;;;12.90;99.90;;;;;;5130591;27;20653;-50
2022/10/21 01:11:17;;;;;;;896.17;396.97;;;13.00;99.90;;;;;;5130993;27;20233;-52
2022/10/21 01:13:59;;;;;;;831.97;348.73;;;13.00;99.90;;;;;;5130967;27;20209;-52
2022/10/21 01:16:35;;;;;;;544.33;253.90;;;13.00;99.90;;;;;;5125116;27;20977;-51
2022/10/21 01:19:17;;;;;;;733.60;303.97;;;13.00;99.90;;;;;;5129422;27;20206;-52
2022/10/21 01:21:53;;;;;;;1027.97;473.33;;;13.00;99.90;;;;;;5130667;27;20286;-52
2022/10/21 01:24:38;;;;;;;524.93;254.93;;;13.10;99.90;;;;;;5130515;27;20292;-52
2022/10/21 01:27:16;;;;;;;472.43;203.83;;;13.10;99.90;;;;;;5129545;27;20233;-51
2022/10/21 01:30:10;;;;;;;641.47;276.73;;;13.10;99.90;;;;;;5130923;27;20297;-52
2022/10/21 01:33:01;;;;;;;709.17;332.23;;;13.10;99.90;;;;;;5117160;27;21004;-52
2022/10/21 01:35:37;;;;;;;840.33;305.30;;;13.20;99.90;;;;;;5130708;27;20211;-52
2022/10/21 01:38:10;;;;;;;618.43;214.33;;;13.20;99.90;;;;;;5130683;27;20278;-52
2022/10/21 01:40:47;;;;;;;755.90;261.83;;;13.20;99.90;;;;;;5130898;27;20210;-51
2022/10/21 01:43:23;;;;;;;511.90;234.03;;;13.20;99.90;;;;;;5130443;27;20202;-52
2022/10/21 01:45:55;;;;;;;915.67;332.83;;;13.20;99.90;;;;;;5129779;27;20221;-52
2022/10/21 01:48:29;;;;;;;469.77;199.50;;;13.20;99.90;;;;;;5129529;27;20620;-52
2022/10/21 01:51:00;;;;;;;694.33;381.63;;;13.20;99.90;;;;;;5130798;27;20282;-51
2022/10/21 01:53:33;;;;;;;936.73;405.97;;;13.20;99.90;;;;;;5129955;27;20202;-52
2022/10/21 01:56:03;;;;;;;535.53;190.33;;;13.20;99.90;;;;;;5130453;27;20215;-52
2022/10/21 01:58:34;;;;;;;659.73;246.40;;;13.20;99.90;;;;;;5130485;27;20755;-51
2022/10/21 02:01:06;;;;;;;1020.30;416.93;;;13.20;99.90;;;;;;5130587;27;20205;-50
2022/10/21 02:03:40;;;;;;;936.60;384.47;;;13.20;99.90;;;;;;5130092;27;20209;-51
2022/10/21 02:06:08;;;;;;;1022.77;316.60;;;13.20;99.90;;;;;;5130479;27;20260;-51
2022/10/21 02:08:36;;;;;;;967.40;496.30;;;13.10;99.90;;;;;;5130426;27;20297;-52
2022/10/21 02:11:08;;;;;;;896.83;390.97;;;13.20;99.90;;;;;;5130048;27;20207;-51
2022/10/21 02:13:41;;;;;;;399.43;164.13;;;13.20;99.90;;;;;;5130211;27;20281;-51
2022/10/21 02:16:15;;;;;;;596.87;211.37;;;13.20;99.90;;;;;;5128590;27;20757;-52
2022/10/21 02:18:44;;;;;;;727.87;380.13;;;13.20;99.90;;;;;;5126987;27;20232;-51
2022/10/21 02:21:18;;;;;;;637.93;265.70;;;13.20;99.90;;;;;;5134159;27;20206;-53
2022/10/21 02:23:52;;;;;;;496.73;191.03;;;13.20;99.90;;;;;;5134226;27;20708;-52
2022/10/21 02:26:20;;;;;;;481.07;210.83;;;13.20;99.90;;;;;;5135751;27;20927;-51
2022/10/21 02:28:49;;;;;;;814.63;268.77;;;13.20;99.90;;;;;;5151095;27;20258;-52
2022/10/21 02:31:36;;;;;;;868.10;313.57;;;13.20;99.90;;;;;;5141853;27;20207;-52
2022/10/21 02:34:16;;;;;;;706.57;238.70;;;13.20;99.90;;;;;;5133502;27;20218;-52
2022/10/21 02:36:52;;;;;;;528.63;201.03;;;13.20;99.90;;;;;;5150048;27;20667;-52
2022/10/21 02:39:28;;;;;;;454.03;170.70;;;13.30;99.90;;;;;;5150236;27;20209;-52
2022/10/21 02:41:59;;;;;;;978.87;432.73;;;13.20;99.90;;;;;;5121476;27;20194;-52
2022/10/21 02:44:27;;;;;;;760.67;291.90;;;13.20;99.90;;;;;;5150700;27;20284;-51
2022/10/21 02:46:55;;;;;;;674.43;299.27;;;13.30;99.90;;;;;;5152484;27;20232;-50
2022/10/21 02:49:25;;;;;;;654.53;212.03;;;13.30;99.90;;;;;;5146383;27;20205;-52
2022/10/21 02:51:54;;;;;;;817.13;323.33;;;13.30;99.90;;;;;;5139757;27;20317;-52
2022/10/21 02:54:22;;;;;;;1097.30;387.67;;;13.30;99.90;;;;;;5154692;27;20693;-52
2022/10/21 02:56:50;;;;;;;856.37;283.47;;;13.30;99.90;;;;;;5154209;27;20222;-51
2022/10/21 02:59:18;;;;;;;618.87;230.53;;;13.30;99.90;;;;;;5154558;27;20396;-51
2022/10/21 03:01:46;;;;;;;924.53;374.93;;;13.30;99.90;;;;;;5153706;27;20213;-52
2022/10/21 03:04:14;;;;;;;969.97;291.60;;;13.40;99.90;;;;;;5129762;27;20284;-52
2022/10/21 03:06:43;;;;;;;885.03;307.67;;;13.40;99.90;;;;;;5154578;27;20230;-52
2022/10/21 03:09:11;;;;;;;923.13;343.30;;;13.40;99.90;;;;;;5146418;27;20240;-52
2022/10/21 03:11:39;;;;;;;781.57;219.80;;;13.40;99.90;;;;;;5153520;27;20205;-52
2022/10/21 03:14:07;;;;;;;759.17;272.57;;;13.50;99.90;;;;;;5154306;27;20302;-52
2022/10/21 03:16:35;;;;;;;827.90;251.57;;;13.50;99.90;;;;;;5153873;27;20307;-52
2022/10/21 03:19:03;;;;;;;826.83;255.97;;;13.50;99.90;;;;;;5154359;27;20202;-51
2022/10/21 03:21:31;;;;;;;975.07;343.57;;;13.50;99.90;;;;;;5154239;27;20214;-51
2022/10/21 03:24:01;;;;;;;848.33;266.23;;;13.50;99.90;;;;;;5152963;27;20821;-51
2022/10/21 03:26:30;;;;;;;952.63;307.57;;;13.50;99.90;;;;;;5140675;27;20226;-51
2022/10/21 03:28:58;;;;;;;346.03;133.47;;;13.50;99.90;;;;;;5154062;27;20218;-52
2022/10/21 03:31:26;;;;;;;566.27;262.57;;;13.50;99.90;;;;;;5138986;27;20683;-52
2022/10/21 03:33:54;;;;;;;1082.37;361.50;;;13.50;99.90;;;;;;5153309;27;20348;-52
2022/10/21 03:36:22;;;;;;;549.87;160.10;;;13.50;99.90;;;;;;5153779;27;20322;-52
2022/10/21 03:38:50;;;;;;;673.53;257.07;;;13.50;99.90;;;;;;5147782;27;20217;-52
2022/10/21 03:41:20;;;;;;;956.90;339.73;;;13.50;99.90;;;;;;5153485;27;20693;-52
2022/10/21 03:43:48;;;;;;;823.13;262.50;;;13.50;99.90;;;;;;5152985;27;20318;-52
2022/10/21 03:46:16;;;;;;;1154.17;503.00;;;13.50;99.90;;;;;;5145714;27;20223;-52
2022/10/21 03:48:44;;;;;;;1270.53;482.43;;;13.50;99.90;;;;;;5153751;27;20289;-51
2022/10/21 03:51:12;;;;;;;632.60;225.17;;;13.50;99.90;;;;;;5151974;27;20753;-52
2022/10/21 03:53:40;;;;;;;546.83;219.70;;;13.50;99.90;;;;;;5153218;27;20221;-52
2022/10/21 03:56:11;;;;;;;820.13;334.07;;;13.50;99.90;;;;;;5152267;27;20234;-52
2022/10/21 03:58:41;;;;;;;868.90;347.27;;;13.60;99.90;;;;;;5125763;27;20289;-51
2022/10/21 04:01:12;;;;;;;1051.03;389.83;;;13.60;99.90;;;;;;5152960;27;20731;-52
2022/10/21 04:03:40;;;;;;;934.83;423.30;;;13.60;99.90;;;;;;5152333;27;20961;-52
2022/10/21 04:06:08;;;;;;;758.00;304.40;;;13.60;99.90;;;;;;5153048;27;20304;-52
2022/10/21 04:08:36;;;;;;;640.77;229.80;;;13.60;99.90;;;;;;5151199;27;20281;-52
2022/10/21 04:11:05;;;;;;;976.63;347.97;;;13.70;99.90;;;;;;5142875;27;20281;-52
2022/10/21 04:13:33;;;;;;;1057.13;463.73;;;13.60;99.90;;;;;;5152573;27;20316;-52
2022/10/21 04:16:05;;;;;;;845.60;252.87;;;13.70;99.90;;;;;;5148047;27;20224;-52
2022/10/21 04:18:33;;;;;;;1153.67;435.83;;;13.70;99.90;;;;;;5152571;27;20206;-52
2022/10/21 04:21:01;;;;;;;566.87;199.53;;;13.70;99.90;;;;;;5152972;27;20198;-51
2022/10/21 04:23:29;;;;;;;1126.43;412.50;;;13.70;99.90;;;;;;5146169;27;20306;-52
2022/10/21 04:25:57;;;;;;;1032.77;355.23;;;13.70;99.90;;;;;;5137796;27;20326;-52
2022/10/21 04:28:25;;;;;;;961.47;320.37;;;13.70;99.90;;;;;;5152670;27;20325;-51
2022/10/21 04:30:53;;;;;;;964.80;310.97;;;13.70;99.90;;;;;;5150078;27;20209;-53
2022/10/21 04:33:22;;;;;;;1239.20;440.70;;;13.80;99.90;;;;;;5151534;27;20232;-52
2022/10/21 04:35:51;;;;;;;1013.30;407.47;;;13.80;99.90;;;;;;5147603;27;20294;-51
2022/10/21 04:38:19;;;;;;;1331.70;409.93;;;13.80;99.90;;;;;;5152221;27;20676;-52
2022/10/21 04:40:47;;;;;;;832.43;309.40;;;13.80;99.90;;;;;;5140636;27;20209;-52
2022/10/21 04:43:15;;;;;;;901.63;306.27;;;13.80;99.90;;;;;;5150863;27;20208;-52
2022/10/21 04:45:43;;;;;;;933.40;306.67;;;13.80;99.90;;;;;;5144519;27;20289;-52
2022/10/21 04:48:12;;;;;;;1055.67;415.03;;;13.80;99.90;;;;;;5149733;27;20212;-52
2022/10/21 04:50:41;;;;;;;946.83;325.33;;;13.80;99.90;;;;;;5152763;27;20293;-52
2022/10/21 04:53:10;;;;;;;828.87;302.03;;;13.80;99.90;;;;;;5143905;27;20222;-52
2022/10/21 04:55:39;;;;;;;839.20;259.83;;;13.90;99.90;;;;;;5152110;27;20293;-51
2022/10/21 04:58:07;;;;;;;848.53;268.33;;;13.90;99.90;;;;;;5136543;27;20841;-51
2022/10/21 05:00:35;;;;;;;571.20;183.37;;;13.90;99.90;;;;;;5152164;27;20658;-52
2022/10/21 05:03:03;;;;;;;1367.67;531.47;;;14.00;99.90;;;;;;5136724;27;20202;-52
2022/10/21 05:05:31;;;;;;;814.73;233.40;;;14.00;99.90;;;;;;5143450;27;20195;-51
2022/10/21 05:08:01;;;;;;;1022.03;327.73;;;14.00;99.90;;;;;;5144620;27;20626;-52
2022/10/21 05:10:29;;;;;;;1291.83;356.07;;;14.00;99.90;;;;;;5151394;27;20599;-52
2022/10/21 05:12:58;;;;;;;1143.67;381.00;;;14.00;99.90;;;;;;5151272;27;20681;-52
2022/10/21 05:15:26;;;;;;;964.17;298.37;;;14.00;99.90;;;;;;5152085;27;20249;-52
2022/10/21 05:17:54;;;;;;;869.37;250.23;;;14.10;99.90;;;;;;5150706;27;20260;-51
2022/10/21 05:20:22;;;;;;;602.53;167.57;;;14.10;99.90;;;;;;5151242;27;20333;-52
2022/10/21 05:22:51;;;;;;;756.87;269.33;;;14.10;99.90;;;;;;5145618;27;20354;-52
2022/10/21 05:25:20;;;;;;;1092.63;346.53;;;14.10;99.90;;;;;;5122125;27;20298;-52
2022/10/21 05:27:50;;;;;;;988.60;413.00;;;14.10;99.90;;;;;;5119875;27;20232;-52
2022/10/21 05:30:18;;;;;;;1358.50;454.33;;;14.10;99.90;;;;;;5126553;27;20204;-51
2022/10/21 05:32:47;;;;;;;983.37;356.90;;;14.10;99.90;;;;;;5129220;27;20207;-52
2022/10/21 05:35:15;;;;;;;1318.47;708.83;;;14.00;99.90;;;;;;5129932;27;20337;-52
2022/10/21 05:37:43;;;;;;;876.93;332.50;;;14.10;99.90;;;;;;5130408;27;20830;-52
2022/10/21 05:40:12;;;;;;;1166.47;401.50;;;14.10;99.90;;;;;;5130085;27;20298;-52
2022/10/21 05:42:41;;;;;;;1055.18;349.77;;;14.10;99.90;;;;;;5130141;27;20263;-51
2022/10/21 05:45:10;;;;;;;1005.80;327.73;;;14.10;99.90;;;;;;5129974;27;20199;-52
2022/10/21 05:47:38;;;;;;;747.20;233.23;;;14.10;99.90;;;;;;5129765;27;20223;-52
2022/10/21 05:50:08;;;;;;;844.73;264.90;;;14.20;99.90;;;;;;5129685;27;20216;-51
2022/10/21 05:52:36;;;;;;;633.60;196.47;;;14.20;99.90;;;;;;5128944;27;20758;-52
2022/10/21 05:55:06;;;;;;;1385.80;435.70;;;14.20;99.90;;;;;;5130425;27;20218;-52
2022/10/21 05:57:34;;;;;;;965.17;358.40;;;14.20;99.90;;;;;;5116339;27;20248;-52
2022/10/21 06:00:05;;;;;;;1227.27;519.13;;;14.20;99.90;;;;;;5130441;27;20324;-52
2022/10/21 06:02:33;;;;;;;1413.33;471.33;;;14.20;99.90;;;;;;5129651;27;20221;-52
2022/10/21 06:05:01;;;;;;;956.87;353.63;;;14.20;99.90;;;;;;5130849;27;20208;-52
2022/10/21 06:07:29;;;;;;;1118.27;369.63;;;14.20;99.90;;;;;;5130696;27;20305;-52
2022/10/21 06:09:57;;;;;;;872.53;248.07;;;14.20;99.90;;;;;;5130572;27;20202;-51
2022/10/21 06:12:25;;;;;;;1116.27;486.97;;;14.20;99.90;;;;;;5129380;27;20659;-52
2022/10/21 06:14:54;;;;;;;653.78;312.17;;;14.30;99.90;;;;;;5130366;27;20217;-52
2022/10/21 06:17:23;;;;;;;1278.63;425.43;;;14.30;99.90;;;;;;5130000;27;20638;-52
2022/10/21 06:19:51;;;;;;;943.77;348.27;;;14.30;99.90;;;;;;5134065;27;20290;-52
2022/10/21 06:22:20;;;;;;;637.07;234.07;;;14.30;99.90;;;;;;5134470;27;20580;-52
2022/10/21 06:24:48;;;;;;;1202.70;397.33;;;14.30;99.90;;;;;;5133925;27;20262;-52
2022/10/21 06:27:16;;;;;;;710.57;273.43;;;14.30;99.90;;;;;;5148779;27;20320;-52
2022/10/21 06:29:44;;;;;;;1214.43;411.70;;;14.30;99.90;;;;;;5155400;27;20195;-52
2022/10/21 06:32:12;;;;;;;614.30;186.17;;;14.30;99.90;;;;;;5151816;27;20793;-52
2022/10/21 06:34:41;;;;;;;1063.82;360.17;;;14.40;99.90;;;;;;5153182;27;20340;-51
2022/10/21 06:37:09;;;;;;;906.58;290.58;;;14.40;99.90;;;;;;5147836;27;20218;-52
2022/10/21 06:39:37;;;;;;;866.27;293.73;;;14.40;99.90;;;;;;5151927;27;20297;-53
2022/10/21 06:42:05;;;;;;;719.17;225.27;;;14.40;99.90;;;;;;5153870;27;20285;-52
2022/10/21 06:44:34;;;;;;;1282.23;427.17;;;14.40;99.90;;;;;;5123452;27;20291;-52
2022/10/21 06:47:02;;;;;;;1029.37;351.73;;;14.40;99.90;;;;;;5142134;27;20325;-52
2022/10/21 06:49:30;;;;;;;1403.50;519.80;;;14.50;99.90;;;;;;5154536;27;20206;-51
2022/10/21 06:51:59;;;;;;;1248.87;404.73;;;14.50;99.90;;;;;;5153909;27;20715;-52
2022/10/21 06:54:27;;;;;;;1235.32;391.55;;;14.50;99.90;;;;;;5141529;27;20230;-52
2022/10/21 06:56:55;;;;;;;1269.47;409.77;;;14.50;99.90;;;;;;5154507;27;20313;-52
2022/10/21 06:59:23;;;;;;;1224.05;463.85;;;14.50;99.90;;;;;;5154693;27;20214;-51
2022/10/21 07:01:51;;;;;;;1331.13;499.30;;;14.50;99.90;;;;;;5149300;27;21456;-52
2022/10/21 07:04:27;;;;;;;1770.03;600.90;;;14.50;99.90;;;;;;5145615;27;20678;-51
2022/10/21 07:06:55;;;;;;;1384.00;438.53;;;14.50;99.90;;;;;;5146729;27;20253;-51
2022/10/21 07:09:25;;;;;;;1465.30;497.67;;;14.50;99.90;;;;;;5148643;27;20211;-52
2022/10/21 07:11:53;;;;;;;1286.80;446.70;;;14.50;99.90;;;;;;5150875;27;20206;-52
2022/10/21 07:14:21;;;;;;;1183.07;504.43;;;14.50;99.90;;;;;;5154337;27;20915;-52
2022/10/21 07:16:50;;;;;;;898.75;285.25;;;14.50;99.90;;;;;;5153486;27;20257;-52
2022/10/21 07:19:18;;;;;;;1197.33;392.50;;;14.50;99.90;;;;;;5153668;27;20213;-52
2022/10/21 07:21:46;;;;;;;1181.53;388.08;;;14.60;99.90;;;;;;5153516;27;20206;-52
2022/10/21 07:24:14;;;;;;;881.83;315.27;;;14.60;99.90;;;;;;5149506;27;20301;-52
2022/10/21 07:26:48;;;;;;;658.07;232.60;;;14.60;99.90;;;;;;5142205;27;20221;-51
2022/10/21 07:29:16;;;;;;;971.58;364.98;;;14.60;99.90;;;;;;5152789;27;20664;-52
2022/10/21 07:31:44;;;;;;;970.25;356.92;;;14.60;99.90;;;;;;5150765;27;20302;-53
2022/10/21 07:34:12;;;;;;;778.13;290.27;;;14.60;99.90;;;;;;5146557;27;20290;-52
2022/10/21 07:36:43;;;;;;;1173.43;368.57;;;14.60;99.90;;;;;;5118884;27;20310;-52
2022/10/21 07:39:13;;;;;;;1298.47;464.90;;;14.60;99.90;;;;;;5138816;27;20206;-52
2022/10/21 07:41:43;;;;;;;807.00;296.63;;;14.60;99.90;;;;;;5125631;27;20213;-52
2022/10/21 07:44:13;;;;;;;1198.82;536.08;;;14.60;99.90;;;;;;5153115;27;20635;-52
2022/10/21 07:46:43;;;;;;;896.25;314.20;;;14.60;99.90;;;;;;5152718;27;20625;-51
2022/10/21 07:49:11;;;;;;;1046.53;410.95;;;14.60;99.90;;;;;;5153437;27;20258;-52
2022/10/21 07:51:40;;;;;;;1103.95;440.35;;;14.70;99.90;;;;;;5152077;27;20198;-52
2022/10/21 07:54:09;;;;;;;1085.88;425.08;;;14.70;99.90;;;;;;5143771;27;20210;-52
2022/10/21 07:56:40;;;;;;;1216.90;454.15;;;14.70;99.90;;;;;;5152294;27;20309;-52
2022/10/21 07:59:08;;;;;;;1269.63;479.75;;;14.70;99.90;;;;;;5152886;27;20297;-52
2022/10/21 08:01:46;;;;;;;733.47;264.05;;;14.70;99.90;;;;;;5150816;27;20213;-52
2022/10/21 08:04:23;;;;;;;1045.07;474.70;;;14.70;99.90;;;;;;5143211;27;20697;-52
2022/10/21 08:06:51;;;;;;;844.80;288.00;;;14.70;99.90;;;;;;5152979;27;20313;-52
2022/10/21 08:09:19;;;;;;;996.85;341.10;;;14.70;99.90;;;;;;5141863;27;20571;-51
2022/10/21 08:11:48;;;;;;;1347.00;459.02;;;14.70;99.90;;;;;;5151975;27;20297;-52
2022/10/21 08:14:16;;;;;;;1228.00;451.13;;;14.80;99.90;;;;;;5145418;27;20237;-52
2022/10/21 08:16:45;;;;;;;950.10;397.63;;;14.80;99.90;;;;;;5151413;27;20312;-52
2022/10/21 08:19:19;;;;;;;1107.18;477.10;;;14.80;99.90;;;;;;5152967;27;20233;-52
2022/10/21 08:21:48;;;;;;;832.75;305.17;;;14.70;99.90;;;;;;5152083;27;20206;-53
2022/10/21 08:24:16;;;;;;;1223.68;524.55;;;14.80;99.90;;;;;;5143470;27;20213;-52
2022/10/21 08:26:44;;;;;;;1070.25;419.45;;;14.80;99.90;;;;;;5141179;27;20755;-52
2022/10/21 08:29:12;;;;;;;1153.30;454.70;;;14.80;99.90;;;;;;5152713;27;20692;-52
2022/10/21 08:31:40;;;;;;;1453.70;601.93;;;14.80;99.90;;;;;;5145574;27;20303;-53
2022/10/21 08:34:10;;;;;;;908.77;305.17;;;14.80;99.90;;;;;;5137420;27;20800;-52
2022/10/21 08:36:38;;;;;;;1292.75;411.83;;;14.80;99.90;;;;;;5131521;27;20351;-52
2022/10/21 08:39:07;;;;;;;1086.43;341.42;;;14.80;99.90;;;;;;5131424;27;20297;-51
2022/10/21 08:41:48;;;;;;;827.63;280.42;;;14.80;99.90;;;;;;5130474;27;20290;-52
2022/10/21 08:44:29;;;;;;;985.08;491.65;;;14.80;99.90;;;;;;5125435;27;20297;-51
2022/10/21 08:47:04;;;;;;;1060.53;363.52;;;14.80;99.90;;;;;;5131150;27;20227;-52
2022/10/21 08:49:44;;;;;;;1023.75;336.85;;;14.80;99.90;;;;;;5131818;27;20224;-52
2022/10/21 08:52:15;;;;;;;1167.88;418.85;;;14.80;99.90;;;;;;5130981;27;20234;-51
2022/10/21 08:54:47;;;;;;;862.13;346.83;;;14.80;99.90;;;;;;5131572;27;20278;-51
2022/10/21 08:57:15;;;;;;;1263.82;520.92;;;14.80;99.90;;;;;;5130879;27;20297;-51
2022/10/21 08:59:43;;;;;;;1230.43;459.95;;;14.80;99.90;;;;;;5131212;27;20301;-51
2022/10/21 09:02:27;;;;;;;857.72;315.98;;;14.80;99.90;;;;;;5130187;27;20758;-51
2022/10/21 09:05:18;;;;;;;894.42;383.20;;;14.80;99.90;;;;;;5130933;27;20720;-51
2022/10/21 09:07:58;;;;;;;911.83;345.98;;;14.70;99.90;;;;;;5130837;27;20218;-51
2022/10/21 09:10:33;;;;;;;1278.20;461.83;;;14.70;99.90;;;;;;5131378;27;20294;-51
2022/10/21 09:13:09;;;;;;;1205.32;515.08;;;14.70;99.90;;;;;;5130463;27;20198;-51
2022/10/21 09:15:44;;;;;;;1020.00;373.00;;;14.70;99.90;;;;;;5130820;27;20310;-51
2022/10/21 09:18:25;;;;;;;679.15;243.68;;;14.70;99.90;;;;;;5130800;27;20216;-51
2022/10/21 09:21:03;;;;;;;1113.18;459.25;;;14.70;99.90;;;;;;5130606;27;20286;-52
2022/10/21 09:23:42;;;;;;;1089.10;425.02;;;14.70;99.90;;;;;;5130617;27;20210;-51
2022/10/21 09:26:26;;;;;;;885.25;339.88;;;14.70;99.90;;;;;;5135146;27;20320;-51
2022/10/21 09:28:57;;;;;;;1208.70;399.92;;;14.70;99.90;;;;;;5138803;27;20226;-51
2022/10/21 09:31:25;;;;;;;1062.60;390.92;;;14.70;99.90;;;;;;5148385;27;20216;-51
2022/10/21 09:33:58;;;;;;;1059.93;380.02;;;14.70;99.90;;;;;;5144430;27;20654;-51
2022/10/21 09:36:34;;;;;;;741.08;254.77;;;14.70;99.90;;;;;;5146143;27;20226;-51
2022/10/21 09:39:06;;;;;;;719.65;250.52;;;14.70;99.90;;;;;;5132057;27;20289;-51
2022/10/21 09:41:39;;;;;;;1096.95;426.27;;;14.70;99.90;;;;;;5150452;27;20285;-51
2022/10/21 09:44:15;;;;;;;950.78;417.80;;;14.70;99.90;;;;;;5151000;27;20243;-51
2022/10/21 09:46:45;;;;;;;1267.18;475.25;;;14.70;99.90;;;;;;5150001;27;20222;-51
2022/10/21 09:49:22;;;;;;;1206.65;452.75;;;14.80;99.90;;;;;;5151065;27;20297;-50
2022/10/21 09:52:12;;;;;;;786.63;301.95;;;14.80;99.90;;;;;;5150889;27;20209;-51
2022/10/21 09:54:42;;;;;;;1024.97;357.20;;;14.80;99.90;;;;;;5148417;27;20209;-51
2022/10/21 09:57:14;;;;;;;900.47;320.30;;;14.90;99.90;;;;;;5147052;27;20321;-50
2022/10/21 09:59:53;;;;;;;1197.97;439.55;;;14.90;99.90;;;;;;5145108;27;20237;-51
2022/10/21 10:02:28;;;;;;;919.55;295.50;;;14.90;99.90;;;;;;5150202;27;20321;-52
2022/10/21 10:04:56;;;;;;;1269.70;425.77;;;14.90;99.90;;;;;;5150705;27;20201;-51
2022/10/21 10:07:33;;;;;;;1144.43;433.90;;;14.90;99.90;;;;;;5150964;27;20309;-51
2022/10/21 10:10:02;;;;;;;894.95;396.75;;;14.90;99.90;;;;;;5145634;27;20309;-51
2022/10/21 10:12:30;;;;;;;1298.93;494.10;;;14.90;99.90;;;;;;5150129;27;20679;-51
2022/10/21 10:15:24;;;;;;;1361.38;455.13;;;14.90;99.90;;;;;;5150931;27;20297;-50
2022/10/21 10:17:57;;;;;;;1215.97;425.80;;;14.90;99.90;;;;;;5129595;27;20227;-51
2022/10/21 10:20:25;;;;;;;1513.05;519.25;;;14.90;99.90;;;;;;5147811;27;20333;-51
2022/10/21 10:23:16;;;;;;;952.90;358.75;;;14.90;99.90;;;;;;5134407;27;20262;-51
2022/10/21 10:25:50;;;;;;;1379.95;464.23;;;15.00;99.90;;;;;;5129538;27;20234;-51
2022/10/21 10:28:23;;;;;;;1143.70;419.70;;;15.00;99.90;;;;;;5129673;27;20250;-51
2022/10/21 10:30:54;;;;;;;971.33;333.67;;;15.00;99.90;;;;;;5129391;27;20274;-51
2022/10/21 10:33:26;;;;;;;955.63;371.27;;;15.00;99.90;;;;;;5128940;28;20261;-51
2022/10/21 10:35:57;;;;;;;1219.88;464.45;;;14.90;99.90;;;;;;5127998;28;20234;-52
2022/10/21 10:38:31;;;;;;;934.65;318.95;;;15.00;99.90;;;;;;5129281;27;20203;-51
2022/10/21 10:41:05;;;;;;;1470.80;518.80;;;14.90;99.90;;;;;;5129317;27;20290;-51
2022/10/21 10:43:37;;;;;;;1186.72;466.48;;;14.90;99.90;;;;;;5129174;27;20841;-51
2022/10/21 10:46:09;;;;;;;1464.65;452.92;;;15.00;99.90;;;;;;5129542;27;20595;-51
2022/10/21 10:48:41;;;;;;;1182.78;475.48;;;14.90;99.90;;;;;;5129964;27;20238;-51
2022/10/21 10:51:26;;;;;;;1222.78;454.42;;;14.90;99.90;;;;;;5129434;27;20299;-51
2022/10/21 10:54:15;;;;;;;1196.93;474.80;;;14.90;99.90;;;;;;5129104;27;20207;-51
2022/10/21 10:56:47;;;;;;;1256.40;484.40;;;14.90;99.90;;;;;;5128874;27;20230;-51
2022/10/21 10:59:21;;;;;;;794.97;284.33;;;14.90;99.90;;;;;;5129318;27;20209;-51
2022/10/21 11:01:57;;;;;;;1100.90;478.88;;;14.90;99.90;;;;;;5128890;27;20207;-51
2022/10/21 11:04:30;;;;;;;1183.65;425.10;;;14.90;99.90;;;;;;5129722;27;20305;-51
2022/10/21 11:07:04;;;;;;;1290.28;526.40;;;14.90;99.90;;;;;;5133242;27;20763;-51
2022/10/21 11:09:34;;;;;;;1166.65;444.42;;;14.80;99.90;;;;;;5133322;27;20711;-52
2022/10/21 11:12:06;;;;;;;974.42;331.75;;;14.90;99.90;;;;;;5128363;27;20290;-52
2022/10/21 11:14:34;;;;;;;980.05;371.65;;;14.90;99.90;;;;;;5129827;27;20298;-52
2022/10/21 11:17:10;;;;;;;946.55;371.58;;;14.90;99.90;;;;;;5140316;27;20232;-52
2022/10/21 11:19:49;;;;;;;1334.65;485.77;;;14.90;99.90;;;;;;5137603;27;20238;-52
2022/10/21 11:22:32;;;;;;;1229.88;442.58;;;15.00;99.90;;;;;;5132488;27;20286;-52
2022/10/21 11:25:08;;;;;;;1093.35;509.55;;;15.00;99.90;;;;;;5132520;27;20747;-52
2022/10/21 11:27:48;;;;;;;782.50;333.45;;;15.00;99.90;;;;;;5149449;27;20230;-51
2022/10/21 11:30:19;;;;;;;905.38;332.80;;;15.00;99.90;;;;;;5149815;27;20237;-52
2022/10/21 11:33:01;;;;;;;1052.13;492.17;;;15.00;99.90;;;;;;5150170;27;20205;-51
2022/10/21 11:35:48;;;;;;;1048.65;495.10;;;15.10;99.90;;;;;;5136002;27;20293;-54
2022/10/21 11:38:44;;;;;;;1045.20;340.92;;;15.00;99.90;;;;;;5153131;27;20464;-51
2022/10/21 11:41:28;;;;;;;1244.10;411.10;;;15.10;99.90;;;;;;5152725;27;20206;-51
2022/10/21 11:44:14;;;;;;;1044.20;387.45;;;15.20;99.90;;;;;;5152682;27;20206;-52
2022/10/21 11:46:54;;;;;;;1040.88;425.40;;;15.10;99.90;;;;;;5148055;27;20654;-52
2022/10/21 11:49:34;;;;;;;1230.68;418.20;;;15.20;99.90;;;;;;5153697;27;20206;-51
2022/10/21 11:52:16;;;;;;;1152.00;460.08;;;15.20;99.90;;;;;;5153085;27;20237;-52
2022/10/21 11:55:11;;;;;;;1078.57;362.63;;;15.20;99.90;;;;;;5153310;27;20216;-52
2022/10/21 11:57:51;;;;;;;1140.30;454.15;;;15.20;99.90;;;;;;5149787;27;20781;-51
2022/10/21 12:00:22;;;;;;;1191.40;390.25;;;15.20;99.90;;;;;;5153661;27;20284;-51
2022/10/21 12:03:14;;;;;;;927.75;342.60;;;15.30;99.90;;;;;;5145107;27;20635;-52
2022/10/21 12:05:51;;;;;;;963.88;316.52;;;15.30;99.90;;;;;;5129243;27;20199;-52
2022/10/21 12:08:23;;;;;;;917.42;326.88;;;15.30;99.90;;;;;;5132314;27;20290;-51
2022/10/21 12:11:00;;;;;;;1304.07;484.30;;;15.30;99.90;;;;;;5124446;27;20195;-52
2022/10/21 12:13:33;;;;;;;1206.57;415.27;;;15.30;99.90;;;;;;5127735;27;20321;-53
2022/10/21 12:16:06;;;;;;;1047.45;467.35;;;15.30;99.90;;;;;;5130770;27;20794;-52
2022/10/21 12:18:39;;;;;;;1458.05;450.65;;;15.30;99.90;;;;;;5131418;27;20257;-52
2022/10/21 12:21:14;;;;;;;1216.25;400.73;;;15.30;99.90;;;;;;5131974;27;20290;-52
2022/10/21 12:23:44;;;;;;;1160.78;415.85;;;15.30;99.90;;;;;;5130192;27;20226;-52
2022/10/21 12:26:19;;;;;;;983.60;293.30;;;15.30;99.90;;;;;;5136301;27;20313;-52